createdAt,value
2019-06-15T00:02:42.485Z,93
2019-06-15T00:07:42.413Z,93
2019-06-15T00:12:42.530Z,93
2019-06-15T00:17:42.380Z,93
2019-06-15T00:22:42.088Z,93
2019-06-15T00:27:41.896Z,93
2019-06-15T00:32:42.624Z,93
2019-06-15T00:37:42.479Z,93
2019-06-15T00:42:42.197Z,94
2019-06-15T00:47:41.888Z,94
2019-06-15T00:52:42.194Z,94
2019-06-15T00:57:41.970Z,94
2019-06-15T01:02:41.834Z,94
2019-06-15T01:07:42.611Z,94
2019-06-15T01:12:41.928Z,94
2019-06-15T01:17:41.807Z,94
2019-06-15T01:22:42.122Z,94
2019-06-15T01:27:41.875Z,94
2019-06-15T01:32:42.449Z,94
2019-06-15T01:37:42.035Z,94
2019-06-15T01:42:41.739Z,94
2019-06-15T01:47:41.938Z,94
2019-06-15T01:52:41.914Z,94
2019-06-15T01:57:41.770Z,94
2019-06-15T02:02:42.548Z,95
2019-06-15T02:07:42.314Z,95
2019-06-15T02:12:42.786Z,95
2019-06-15T02:17:42.612Z,95
2019-06-15T02:22:42.747Z,95
2019-06-15T02:27:42.697Z,95
2019-06-15T02:32:42.455Z,95
2019-06-15T02:37:42.136Z,95
2019-06-15T02:42:41.842Z,95
2019-06-15T02:47:42.608Z,95
2019-06-15T02:52:42.491Z,95
2019-06-15T02:57:42.238Z,95
2019-06-15T03:02:42.103Z,96
2019-06-15T03:07:41.951Z,96
2019-06-15T03:12:42.667Z,96
2019-06-15T03:17:42.627Z,96
2019-06-15T03:22:42.418Z,96
2019-06-15T03:27:42.197Z,96
2019-06-15T03:32:41.925Z,96
2019-06-15T03:37:42.105Z,96
2019-06-15T03:42:42.884Z,95
2019-06-15T03:47:42.586Z,95
2019-06-15T03:52:42.372Z,95
2019-06-15T03:57:42.405Z,95
2019-06-15T04:02:42.332Z,95
2019-06-15T04:07:42.493Z,95
2019-06-15T04:12:42.367Z,94
2019-06-15T04:17:41.927Z,94
2019-06-15T04:22:42.134Z,94
2019-06-15T04:27:42.218Z,94
2019-06-15T04:32:42.320Z,93
2019-06-15T04:37:42.876Z,93
2019-06-15T04:42:42.183Z,93
2019-06-15T04:47:42.879Z,93
2019-06-15T04:52:42.684Z,94
2019-06-15T04:57:42.413Z,94
2019-06-15T05:02:42.565Z,94
2019-06-15T05:07:42.569Z,94
2019-06-15T05:12:41.965Z,94
2019-06-15T05:17:46.005Z,94
2019-06-15T05:22:42.101Z,94
2019-06-15T05:27:42.137Z,94
2019-06-15T05:32:42.833Z,94
2019-06-15T05:37:42.734Z,94
2019-06-15T05:42:42.918Z,95
2019-06-15T05:47:42.689Z,95
2019-06-15T05:52:42.397Z,95
2019-06-15T05:57:42.184Z,95
2019-06-15T06:02:42.979Z,96
2019-06-15T06:07:42.864Z,96
2019-06-15T06:12:42.707Z,96
2019-06-15T06:17:42.636Z,96
2019-06-15T06:22:42.674Z,96
2019-06-15T06:27:42.386Z,96
2019-06-15T06:32:42.348Z,96
2019-06-15T06:37:42.400Z,96
2019-06-15T06:42:42.223Z,97
2019-06-15T06:47:43.000Z,97
2019-06-15T06:52:42.919Z,97
2019-06-15T06:57:52.263Z,97
2019-06-15T07:02:42.839Z,97
2019-06-15T07:07:42.704Z,97
2019-06-15T07:12:43.087Z,97
2019-06-15T07:17:42.890Z,97
2019-06-15T07:22:42.159Z,98
2019-06-15T07:27:43.011Z,98
2019-06-15T07:32:43.044Z,98
2019-06-15T07:37:42.950Z,98
2019-06-15T07:42:43.088Z,98
2019-06-15T07:47:42.877Z,98
2019-06-15T07:52:42.799Z,98
2019-06-15T07:57:42.668Z,98
2019-06-15T08:02:42.827Z,98
2019-06-15T08:07:42.738Z,98
2019-06-15T08:12:42.507Z,98
2019-06-15T08:17:45.392Z,98
2019-06-15T08:22:42.524Z,98
2019-06-15T08:27:42.287Z,98
2019-06-15T08:32:43.139Z,98
2019-06-15T08:37:42.918Z,98
2019-06-15T08:42:42.623Z,98
2019-06-15T08:47:42.263Z,98
2019-06-15T08:52:43.229Z,98
2019-06-15T08:57:42.981Z,98
2019-06-15T09:02:42.760Z,98
2019-06-15T09:07:42.559Z,98
2019-06-15T09:12:42.762Z,98
2019-06-15T09:17:42.453Z,98
2019-06-15T09:22:43.211Z,98
2019-06-15T09:27:42.881Z,98
2019-06-15T09:32:42.832Z,98
2019-06-15T09:37:42.980Z,98
2019-06-15T09:42:42.850Z,98
2019-06-15T09:47:42.457Z,98
2019-06-15T09:52:42.982Z,98
2019-06-15T09:57:42.875Z,98
2019-06-15T10:02:42.645Z,98
2019-06-15T10:07:43.169Z,98
2019-06-15T10:12:42.809Z,98
2019-06-15T10:17:43.032Z,98
2019-06-15T10:22:43.009Z,98
2019-06-15T10:27:42.538Z,98
2019-06-15T10:32:43.121Z,99
2019-06-15T10:37:42.913Z,99
2019-06-15T10:42:42.798Z,99
2019-06-15T10:47:42.782Z,99
2019-06-15T10:52:42.819Z,99
2019-06-15T10:57:42.543Z,99
2019-06-15T11:02:43.273Z,99
2019-06-15T11:07:43.192Z,99
2019-06-15T11:12:46.670Z,99
2019-06-15T11:17:42.995Z,99
2019-06-15T11:22:42.413Z,99
2019-06-15T11:27:43.172Z,99
2019-06-15T11:32:42.864Z,99
2019-06-15T11:37:42.773Z,99
2019-06-15T11:42:42.637Z,99
2019-06-15T11:47:43.372Z,99
2019-06-15T11:52:43.207Z,99
2019-06-15T11:57:43.011Z,99
2019-06-15T12:02:42.741Z,99
2019-06-15T12:07:42.776Z,99
2019-06-15T12:12:42.559Z,99
2019-06-15T12:17:43.229Z,99
2019-06-15T12:22:42.449Z,99
2019-06-15T12:27:43.190Z,99
2019-06-15T12:32:42.986Z,99
2019-06-15T12:37:43.014Z,99
2019-06-15T12:42:42.708Z,99
2019-06-15T12:47:43.484Z,99
2019-06-15T12:52:43.422Z,99
2019-06-15T12:57:43.140Z,99
2019-06-15T13:02:42.917Z,99
2019-06-15T13:07:42.784Z,99
2019-06-15T13:12:43.249Z,99
2019-06-15T13:17:43.021Z,99
2019-06-15T13:22:43.241Z,99
2019-06-15T13:27:43.128Z,99
2019-06-15T13:32:43.100Z,99
2019-06-15T13:37:43.024Z,99
2019-06-15T13:42:42.730Z,99
2019-06-15T13:47:42.627Z,99
2019-06-15T13:52:42.602Z,99
2019-06-15T13:57:43.206Z,99
2019-06-15T14:02:42.961Z,98
2019-06-15T14:07:42.868Z,98
2019-06-15T14:12:43.129Z,98
2019-06-15T14:17:43.333Z,98
2019-06-15T14:22:43.171Z,97
2019-06-15T14:27:43.090Z,97
2019-06-15T14:32:42.955Z,96
2019-06-15T14:37:42.965Z,96
2019-06-15T14:42:42.726Z,96
2019-06-15T14:47:43.458Z,96
2019-06-15T14:52:43.440Z,95
2019-06-15T14:57:43.204Z,95
2019-06-15T15:02:42.900Z,92
2019-06-15T15:07:42.815Z,92
2019-06-15T15:12:45.905Z,90
2019-06-15T15:17:45.908Z,90
2019-06-15T15:22:43.025Z,89
2019-06-15T15:27:43.453Z,89
2019-06-15T15:32:43.239Z,87
2019-06-15T15:37:43.415Z,87
2019-06-15T15:42:43.236Z,87
2019-06-15T15:47:43.548Z,87
2019-06-15T15:52:42.690Z,85
2019-06-15T15:57:43.239Z,85
2019-06-15T16:02:51.072Z,84
2019-06-15T16:07:43.473Z,84
2019-06-15T16:12:46.273Z,83
2019-06-15T16:17:43.735Z,83
2019-06-15T16:22:42.761Z,82
2019-06-15T16:27:43.058Z,82
2019-06-15T16:32:43.102Z,80
2019-06-15T16:37:43.474Z,80
2019-06-15T16:42:43.281Z,80
2019-06-15T16:47:42.947Z,80
2019-06-15T16:52:43.759Z,79
2019-06-15T16:57:46.210Z,79
2019-06-15T17:02:43.402Z,79
2019-06-15T17:07:45.897Z,79
2019-06-15T17:12:43.157Z,80
2019-06-15T17:17:42.894Z,80
2019-06-15T17:22:43.782Z,80
2019-06-15T17:27:43.497Z,80
2019-06-15T17:32:43.428Z,81
2019-06-15T17:37:43.290Z,81
2019-06-15T17:42:42.863Z,82
2019-06-15T17:47:46.575Z,82
2019-06-15T17:52:43.584Z,83
2019-06-15T17:57:43.300Z,83
2019-06-15T18:02:43.061Z,86
2019-06-15T18:07:43.971Z,86
2019-06-15T18:12:43.851Z,88
2019-06-15T18:17:42.952Z,88
2019-06-15T18:22:43.788Z,89
2019-06-15T18:27:43.573Z,89
2019-06-15T18:32:43.413Z,90
2019-06-15T18:37:43.201Z,90
2019-06-15T18:42:42.886Z,90
2019-06-15T18:47:43.872Z,90
2019-06-15T18:52:45.984Z,90
2019-06-15T18:57:45.979Z,90
2019-06-15T19:02:43.902Z,89
2019-06-15T19:07:43.820Z,89
2019-06-15T19:12:42.989Z,89
2019-06-15T19:17:46.240Z,89
2019-06-15T19:22:43.151Z,90
2019-06-15T19:27:43.468Z,90
2019-06-15T19:32:43.209Z,90
2019-06-15T19:37:43.048Z,90
2019-06-15T19:42:43.770Z,88
2019-06-15T19:47:43.603Z,88
2019-06-15T19:52:45.992Z,89
2019-06-15T19:57:43.188Z,89
2019-06-15T20:02:43.960Z,89
2019-06-15T20:07:46.447Z,89
2019-06-15T20:12:43.435Z,90
2019-06-15T20:17:43.109Z,90
2019-06-15T20:22:46.636Z,90
2019-06-15T20:27:43.554Z,90
2019-06-15T20:32:43.263Z,91
2019-06-15T20:37:43.177Z,91
2019-06-15T20:42:46.062Z,91
2019-06-15T20:47:44.002Z,91
2019-06-15T20:52:44.011Z,91
2019-06-15T20:57:45.992Z,91
2019-06-15T21:02:43.954Z,91
2019-06-15T21:07:46.573Z,91
2019-06-15T21:12:43.803Z,91
2019-06-15T21:17:43.654Z,91
2019-06-15T21:22:43.455Z,91
2019-06-15T21:27:43.311Z,91
2019-06-15T21:32:46.454Z,92
2019-06-15T21:37:46.288Z,92
2019-06-15T21:42:43.340Z,92
2019-06-15T21:47:46.277Z,92
2019-06-15T21:52:43.125Z,92
2019-06-15T21:57:43.807Z,92
2019-06-15T22:02:43.569Z,92
2019-06-15T22:07:43.988Z,92
2019-06-15T22:12:43.925Z,92
2019-06-15T22:17:43.577Z,92
2019-06-15T22:22:43.268Z,92
2019-06-15T22:27:43.859Z,92
2019-06-15T22:32:43.258Z,92
2019-06-15T22:37:46.595Z,92
2019-06-15T22:42:44.083Z,92
2019-06-15T22:47:43.866Z,92
2019-06-15T22:52:43.629Z,92
2019-06-15T22:57:45.938Z,92
2019-06-15T23:02:45.991Z,92
2019-06-15T23:07:43.367Z,92
2019-06-15T23:12:43.302Z,92
2019-06-15T23:17:46.414Z,92
2019-06-15T23:22:43.495Z,92
2019-06-15T23:27:46.746Z,92
2019-06-15T23:32:43.746Z,93
2019-06-15T23:37:46.356Z,93
2019-06-15T23:42:45.876Z,92
2019-06-15T23:47:46.463Z,92
2019-06-15T23:52:43.453Z,92
2019-06-15T23:57:46.316Z,92
